createdAt,value
2017-08-28T00:02:15.148Z,97213.50
2017-08-28T00:04:42.765Z,97210.97
2017-08-28T00:07:10.360Z,97201.93
2017-08-28T00:09:38.304Z,97207.08
2017-08-28T00:12:06.062Z,97209.64
2017-08-28T00:14:33.658Z,97213.50
2017-08-28T00:17:01.283Z,97222.47
2017-08-28T00:19:28.864Z,97215.61
2017-08-28T00:21:56.479Z,97218.22
2017-08-28T00:24:24.110Z,97214.33
2017-08-28T00:26:52.041Z,97214.44
2017-08-28T00:29:19.654Z,97214.97
2017-08-28T00:31:47.272Z,97209.21
2017-08-28T00:34:15.008Z,97211.02
2017-08-28T00:36:42.607Z,97214.02
2017-08-28T00:39:10.381Z,97213.23
2017-08-28T00:41:37.987Z,97212.84
2017-08-28T00:44:06.296Z,97208.16
2017-08-28T00:46:34.024Z,97213.80
2017-08-28T00:49:01.638Z,97211.63
2017-08-28T00:51:29.263Z,97216.77
2017-08-28T00:53:56.868Z,97214.98
2017-08-28T00:56:24.525Z,97217.55
2017-08-28T00:58:52.141Z,97219.30
2017-08-28T01:01:19.776Z,97220.19
2017-08-28T01:03:47.375Z,97215.05
2017-08-28T01:06:15.541Z,97216.30
2017-08-28T01:08:43.161Z,97214.59
2017-08-28T01:11:10.836Z,97214.98
2017-08-28T01:13:38.585Z,97209.41
2017-08-28T01:16:06.183Z,97206.05
2017-08-28T01:18:33.802Z,97220.66
2017-08-28T01:21:01.438Z,97213.80
2017-08-28T01:23:29.193Z,97211.23
2017-08-28T01:25:56.767Z,97209.52
2017-08-28T01:28:24.811Z,97210.34
2017-08-28T01:30:52.425Z,97207.37
2017-08-28T01:33:20.053Z,97215.05
2017-08-28T01:35:47.700Z,97220.66
2017-08-28T01:38:15.408Z,97220.22
2017-08-28T01:40:43.118Z,97217.66
2017-08-28T01:43:10.722Z,97220.69
2017-08-28T01:45:38.360Z,97222.00
2017-08-28T01:48:05.996Z,97222.83
2017-08-28T01:50:33.980Z,97228.83
2017-08-28T01:53:01.686Z,97228.83
2017-08-28T01:55:29.290Z,97222.03
2017-08-28T01:57:56.924Z,97227.17
2017-08-28T02:00:24.570Z,97227.20
2017-08-28T02:02:52.306Z,97226.41
2017-08-28T02:05:19.905Z,97225.16
2017-08-28T02:07:47.790Z,97223.55
2017-08-28T02:10:15.388Z,97222.75
2017-08-28T02:12:42.973Z,97226.64
2017-08-28T02:15:10.597Z,97225.31
2017-08-28T02:17:38.176Z,97222.32
2017-08-28T02:20:05.799Z,97221.89
2017-08-28T02:22:33.396Z,97218.47
2017-08-28T02:25:00.992Z,97224.03
2017-08-28T02:27:28.599Z,97218.50
2017-08-28T02:29:56.541Z,97218.06
2017-08-28T02:32:24.150Z,97212.53
2017-08-28T02:34:51.886Z,97219.81
2017-08-28T02:37:19.519Z,97207.82
2017-08-28T02:39:47.127Z,97208.73
2017-08-28T02:42:14.735Z,97207.95
2017-08-28T02:44:42.343Z,97198.50
2017-08-28T02:47:09.965Z,97203.70
2017-08-28T02:49:37.619Z,97204.13
2017-08-28T02:52:05.764Z,97206.20
2017-08-28T02:54:33.376Z,97199.78
2017-08-28T02:57:00.975Z,97205.38
2017-08-28T02:59:28.592Z,97193.91
2017-08-28T03:01:56.217Z,97197.82
2017-08-28T03:04:23.838Z,97202.16
2017-08-28T03:06:51.442Z,97202.16
2017-08-28T03:09:19.057Z,97197.42
2017-08-28T03:11:46.707Z,97194.00
2017-08-28T03:14:14.633Z,97188.83
2017-08-28T03:16:42.233Z,97191.83
2017-08-28T03:19:09.852Z,97188.86
2017-08-28T03:24:11.469Z,97193.56
2017-08-28T03:26:39.086Z,97189.31
2017-08-28T03:29:06.677Z,97185.47
2017-08-28T03:31:34.325Z,97186.35
2017-08-28T03:34:01.937Z,97181.64
2017-08-28T03:36:29.562Z,97191.89
2017-08-28T03:38:57.156Z,97184.58
2017-08-28T03:41:25.172Z,97185.89
2017-08-28T03:43:52.773Z,97190.14
2017-08-28T03:46:20.375Z,97194.89
2017-08-28T03:48:47.976Z,97188.03
2017-08-28T03:51:15.566Z,97191.03
2017-08-28T03:53:43.182Z,97197.45
2017-08-28T03:56:10.794Z,97191.06
2017-08-28T03:58:38.462Z,97192.38
2017-08-28T04:01:06.075Z,97198.80
2017-08-28T04:03:33.680Z,97194.15
2017-08-28T04:06:01.429Z,97195.86
2017-08-28T04:08:29.115Z,97201.05
2017-08-28T04:10:56.739Z,97200.23
2017-08-28T04:13:24.538Z,97195.92
2017-08-28T04:15:52.532Z,97193.81
2017-08-28T04:18:20.139Z,97203.63
2017-08-28T04:20:47.754Z,97211.36
2017-08-28T04:23:15.385Z,97213.53
2017-08-28T04:25:43.000Z,97216.92
2017-08-28T04:28:11.247Z,97219.09
2017-08-28T04:30:38.828Z,97221.80
2017-08-28T04:33:06.814Z,97215.55
2017-08-28T04:35:34.427Z,97216.51
2017-08-28T04:38:02.029Z,97216.97
2017-08-28T04:40:29.637Z,97215.28
2017-08-28T04:42:57.677Z,97216.51
2017-08-28T04:45:25.282Z,97219.83
2017-08-28T04:47:52.870Z,97223.99
2017-08-28T04:50:20.512Z,97220.57
2017-08-28T04:52:48.608Z,97211.23
2017-08-28T04:55:16.221Z,97226.64
2017-08-28T04:57:44.159Z,97224.08
2017-08-28T05:00:11.787Z,97221.91
2017-08-28T05:02:39.679Z,97221.05
2017-08-28T05:05:07.310Z,97218.91
2017-08-28T05:07:34.899Z,97221.56
2017-08-28T05:10:02.517Z,97224.10
2017-08-28T05:12:30.141Z,97222.20
2017-08-28T05:14:57.776Z,97214.73
2017-08-28T05:17:25.565Z,97220.69
2017-08-28T05:19:53.162Z,97217.72
2017-08-28T05:22:20.802Z,97215.58
2017-08-28T05:24:48.404Z,97213.87
2017-08-28T05:27:16.165Z,97213.38
2017-08-28T05:29:44.108Z,97214.70
2017-08-28T05:32:11.733Z,97210.81
2017-08-28T05:34:39.323Z,97215.00
2017-08-28T05:37:06.970Z,97217.17
2017-08-28T05:39:34.576Z,97217.58
2017-08-28T05:42:02.193Z,97218.28
2017-08-28T05:44:29.796Z,97219.81
2017-08-28T05:46:57.957Z,97218.83
2017-08-28T05:49:25.565Z,97215.84
2017-08-28T05:51:53.346Z,97211.45
2017-08-28T05:54:20.958Z,97208.00
2017-08-28T05:56:48.600Z,97206.77
2017-08-28T05:59:16.242Z,97206.81
2017-08-28T06:01:43.846Z,97213.14
2017-08-28T06:04:11.485Z,97206.64
2017-08-28T06:06:39.210Z,97199.36
2017-08-28T06:09:07.911Z,97197.71
2017-08-28T06:11:35.520Z,97199.79
2017-08-28T06:14:03.265Z,97198.08
2017-08-28T06:16:30.866Z,97193.80
2017-08-28T06:18:58.838Z,97199.36
2017-08-28T06:21:26.434Z,97199.76
2017-08-28T06:23:54.087Z,97200.94
2017-08-28T06:26:21.714Z,97201.73
2017-08-28T06:28:49.325Z,97202.59
2017-08-28T06:31:16.952Z,97207.77
2017-08-28T06:33:44.579Z,97207.23
2017-08-28T06:36:13.751Z,97205.38
2017-08-28T06:38:41.399Z,97215.11
2017-08-28T06:41:09.007Z,97217.11
2017-08-28T06:43:36.660Z,97218.69
2017-08-28T06:46:04.255Z,97216.08
2017-08-28T06:48:31.862Z,97209.93
2017-08-28T06:50:59.479Z,97214.61
2017-08-28T06:53:27.131Z,97216.61
2017-08-28T06:55:54.859Z,97217.28
2017-08-28T06:58:22.845Z,97221.95
2017-08-28T07:00:50.453Z,97227.84
2017-08-28T07:03:18.407Z,97227.23
2017-08-28T07:05:46.014Z,97227.94
2017-08-28T07:08:13.623Z,97227.89
2017-08-28T07:10:41.265Z,97233.00
2017-08-28T07:13:08.886Z,97238.11
2017-08-28T07:15:36.550Z,97241.47
2017-08-28T07:18:04.165Z,97252.52
2017-08-28T07:20:31.980Z,97250.88
2017-08-28T07:22:59.614Z,97250.02
2017-08-28T07:25:27.241Z,97249.63
2017-08-28T07:27:54.859Z,97245.77
2017-08-28T07:30:22.775Z,97236.32
2017-08-28T07:32:50.389Z,97240.69
2017-08-28T07:35:17.972Z,97246.77
2017-08-28T07:37:45.584Z,97245.52
2017-08-28T07:40:13.183Z,97254.14
2017-08-28T07:42:40.821Z,97253.25
2017-08-28T07:45:08.416Z,97259.17
2017-08-28T07:47:36.064Z,97253.05
2017-08-28T07:50:03.680Z,97249.85
2017-08-28T07:52:31.323Z,97244.04
2017-08-28T07:54:59.039Z,97251.17
2017-08-28T07:57:26.950Z,97246.28
2017-08-28T07:59:54.536Z,97253.28
2017-08-28T08:02:22.151Z,97254.45
2017-08-28T08:04:49.788Z,97259.73
2017-08-28T08:07:17.410Z,97255.20
2017-08-28T08:09:45.044Z,97254.04
2017-08-28T08:12:12.639Z,97257.12
2017-08-28T08:14:40.278Z,97248.71
2017-08-28T08:17:07.879Z,97254.92
2017-08-28T08:19:35.822Z,97260.79
2017-08-28T08:22:03.556Z,97275.50
2017-08-28T08:24:31.238Z,97274.13
2017-08-28T08:26:58.885Z,97271.53
2017-08-28T08:29:26.636Z,97269.34
2017-08-28T08:31:54.268Z,97265.42
2017-08-28T08:34:23.772Z,97266.19
2017-08-28T08:36:51.405Z,97266.63
2017-08-28T08:39:19.028Z,97263.75
2017-08-28T08:41:47.033Z,97272.39
2017-08-28T08:44:14.692Z,97272.92
2017-08-28T08:46:42.298Z,97281.95
2017-08-28T08:49:09.943Z,97270.87
2017-08-28T08:51:37.571Z,97267.91
2017-08-28T08:54:05.222Z,97275.66
2017-08-28T08:56:32.846Z,97268.36
2017-08-28T08:59:00.477Z,97269.69
2017-08-28T09:01:28.067Z,97274.80
2017-08-28T09:03:55.697Z,97270.94
2017-08-28T09:06:23.293Z,97272.31
2017-08-28T09:08:51.169Z,97266.18
2017-08-28T09:11:18.773Z,97270.39
2017-08-28T09:13:46.388Z,97267.33
2017-08-28T09:16:14.077Z,97268.00
2017-08-28T09:18:41.825Z,97282.14
2017-08-28T09:21:11.013Z,97286.21
2017-08-28T09:23:38.635Z,97289.88
2017-08-28T09:26:06.255Z,97284.48
2017-08-28T09:28:33.978Z,97289.30
2017-08-28T09:31:01.913Z,97286.84
2017-08-28T09:33:29.506Z,97282.71
2017-08-28T09:35:57.273Z,97280.33
2017-08-28T09:38:24.942Z,97280.66
2017-08-28T09:40:52.642Z,97272.80
2017-08-28T09:43:20.319Z,97267.75
2017-08-28T09:45:47.941Z,97261.86
2017-08-28T09:48:15.772Z,97261.33
2017-08-28T09:50:43.392Z,97266.11
2017-08-28T09:53:11.368Z,97269.18
2017-08-28T09:55:38.991Z,97266.23
2017-08-28T09:58:06.682Z,97268.86
2017-08-28T10:00:34.497Z,97273.60
2017-08-28T10:03:02.085Z,97276.13
2017-08-28T10:05:29.879Z,97271.50
2017-08-28T10:07:57.490Z,97272.97
2017-08-28T10:10:25.145Z,97270.65
2017-08-28T10:12:52.755Z,97276.35
2017-08-28T10:15:20.937Z,97275.70
2017-08-28T10:17:54.015Z,97277.94
2017-08-28T10:20:22.030Z,97273.14
2017-08-28T10:22:50.435Z,97274.64
2017-08-28T10:25:18.039Z,97276.62
2017-08-28T10:27:45.650Z,97265.36
2017-08-28T10:30:13.248Z,97267.55
2017-08-28T10:32:40.908Z,97262.21
2017-08-28T10:35:08.498Z,97259.89
2017-08-28T10:37:36.489Z,97250.45
2017-08-28T10:40:04.086Z,97254.70
2017-08-28T10:42:31.869Z,97243.70
2017-08-28T10:44:59.483Z,97247.47
2017-08-28T10:47:27.094Z,97239.84
2017-08-28T10:49:54.741Z,97237.67
2017-08-28T10:52:22.365Z,97246.64
2017-08-28T10:54:52.540Z,97239.17
2017-08-28T10:57:20.128Z,97232.28
2017-08-28T10:59:47.704Z,97219.25
2017-08-28T11:02:15.339Z,97219.30
2017-08-28T11:04:42.944Z,97214.03
2017-08-28T11:07:10.588Z,97212.11
2017-08-28T11:09:38.235Z,97202.36
2017-08-28T11:12:06.220Z,97198.83
2017-08-28T11:14:33.828Z,97190.47
2017-08-28T11:17:01.450Z,97186.64
2017-08-28T11:19:29.059Z,97201.44
2017-08-28T11:21:56.685Z,97175.86
2017-08-28T11:24:24.399Z,97184.95
2017-08-28T11:26:51.999Z,97180.75
2017-08-28T11:29:19.617Z,97180.37
2017-08-28T11:31:47.224Z,97179.19
2017-08-28T11:34:15.024Z,97175.08
2017-08-28T11:36:42.629Z,97172.43
2017-08-28T11:39:10.620Z,97170.89
2017-08-28T11:41:38.242Z,97170.80
2017-08-28T11:44:05.851Z,97167.33
2017-08-28T11:46:33.484Z,97180.85
2017-08-28T11:49:01.111Z,97170.08
2017-08-28T11:51:28.737Z,97168.00
2017-08-28T11:53:56.458Z,97169.59
2017-08-28T11:56:24.410Z,97169.75
2017-08-28T11:58:52.212Z,97160.42
2017-08-28T12:01:19.842Z,97157.90
2017-08-28T12:03:47.505Z,97156.63
2017-08-28T12:06:15.108Z,97153.92
2017-08-28T12:08:42.751Z,97153.77
2017-08-28T12:11:10.365Z,97154.53
2017-08-28T12:13:37.999Z,97156.41
2017-08-28T12:16:05.624Z,97153.20
2017-08-28T12:18:33.658Z,97155.20
2017-08-28T12:21:01.261Z,97150.94
2017-08-28T12:23:28.980Z,97161.62
2017-08-28T12:25:56.605Z,97161.41
2017-08-28T12:28:24.248Z,97159.77
2017-08-28T12:30:51.896Z,97162.36
2017-08-28T12:33:19.502Z,97157.91
2017-08-28T12:35:47.143Z,97159.27
2017-08-28T12:38:14.731Z,97163.13
2017-08-28T12:40:42.679Z,97152.73
2017-08-28T12:43:10.342Z,97150.91
2017-08-28T12:45:37.954Z,97145.82
2017-08-28T12:48:05.590Z,97151.56
2017-08-28T12:50:33.214Z,97142.27
2017-08-28T12:53:00.984Z,97146.74
2017-08-28T12:55:28.574Z,97147.09
2017-08-28T12:57:56.529Z,97144.41
2017-08-28T13:00:24.203Z,97143.80
2017-08-28T13:02:51.827Z,97143.91
2017-08-28T13:05:19.464Z,97144.78
2017-08-28T13:07:47.057Z,97142.20
2017-08-28T13:10:14.841Z,97147.47
2017-08-28T13:12:42.436Z,97140.74
2017-08-28T13:15:10.050Z,97144.89
2017-08-28T13:17:37.636Z,97154.36
2017-08-28T13:20:05.271Z,97148.02
2017-08-28T13:22:32.873Z,97141.33
2017-08-28T13:25:00.745Z,97149.94
2017-08-28T13:27:28.339Z,97137.92
2017-08-28T13:29:55.952Z,97137.63
2017-08-28T13:32:23.603Z,97136.91
2017-08-28T13:34:51.196Z,97140.88
2017-08-28T13:37:18.865Z,97133.02
2017-08-28T13:39:46.823Z,97131.86
2017-08-28T13:42:14.421Z,97138.77
2017-08-28T13:44:42.012Z,97135.37
2017-08-28T13:47:09.638Z,97133.95
2017-08-28T13:49:37.268Z,97133.66
2017-08-28T13:52:04.860Z,97133.41
2017-08-28T13:54:32.503Z,97132.34
2017-08-28T13:57:00.328Z,97131.48
2017-08-28T13:59:28.227Z,97126.45
2017-08-28T14:01:55.975Z,97129.61
2017-08-28T14:04:23.566Z,97122.36
2017-08-28T14:06:51.182Z,97120.87
2017-08-28T14:09:18.870Z,97120.08
2017-08-28T14:11:46.534Z,97117.73
2017-08-28T14:14:14.127Z,97122.36
2017-08-28T14:16:42.032Z,97123.98
2017-08-28T14:19:10.550Z,97118.59
2017-08-28T14:21:38.153Z,97116.42
2017-08-28T14:24:05.782Z,97119.34
2017-08-28T14:26:33.515Z,97112.80
2017-08-28T14:29:01.137Z,97108.17
2017-08-28T14:31:28.768Z,97136.33
2017-08-28T14:33:56.818Z,97115.86
2017-08-28T14:36:24.420Z,97118.92
2017-08-28T14:38:52.142Z,97117.95
2017-08-28T14:41:19.779Z,97117.84
2017-08-28T14:43:47.489Z,97114.27
2017-08-28T14:46:15.227Z,97112.19
2017-08-28T14:48:42.836Z,97116.97
2017-08-28T14:51:10.479Z,97112.65
2017-08-28T14:53:38.069Z,97109.12
2017-08-28T14:56:05.688Z,97109.01
2017-08-28T14:58:33.288Z,97110.17
2017-08-28T15:01:01.247Z,97102.23
2017-08-28T15:03:29.073Z,97102.73
2017-08-28T15:05:56.672Z,97107.93
2017-08-28T15:08:24.293Z,97110.34
2017-08-28T15:10:51.874Z,97112.39
2017-08-28T15:13:19.495Z,97115.95
2017-08-28T15:15:47.101Z,97109.91
2017-08-28T15:18:14.712Z,97107.77
2017-08-28T15:20:42.522Z,97105.14
2017-08-28T15:23:10.450Z,97110.68
2017-08-28T15:25:38.184Z,97106.55
2017-08-28T15:28:05.797Z,97099.95
2017-08-28T15:30:33.454Z,97101.75
2017-08-28T15:33:01.047Z,97105.31
2017-08-28T15:35:29.275Z,97097.03
2017-08-28T15:37:56.902Z,97088.58
2017-08-28T15:40:24.807Z,97092.05
2017-08-28T15:42:52.478Z,97089.66
2017-08-28T15:45:20.077Z,97088.79
2017-08-28T15:47:47.717Z,97088.38
2017-08-28T15:50:15.313Z,97091.34
2017-08-28T15:52:42.933Z,97088.04
2017-08-28T15:55:10.530Z,97091.91
2017-08-28T15:57:38.204Z,97097.91
2017-08-28T16:00:05.796Z,97091.69
2017-08-28T16:02:33.709Z,97093.45
2017-08-28T16:05:01.301Z,97104.16
2017-08-28T16:07:29.013Z,97100.21
2017-08-28T16:09:56.640Z,97096.91
2017-08-28T16:12:24.237Z,97099.67
2017-08-28T16:14:51.882Z,97102.73
2017-08-28T16:17:19.491Z,97106.15
2017-08-28T16:19:47.501Z,97105.41
2017-08-28T16:22:15.083Z,97109.25
2017-08-28T16:24:44.029Z,97097.88
2017-08-28T16:27:11.701Z,97101.91
2017-08-28T16:29:39.328Z,97094.91
2017-08-28T16:32:06.930Z,97094.55
2017-08-28T16:34:34.538Z,97099.81
2017-08-28T16:37:02.222Z,97097.80
2017-08-28T16:39:29.836Z,97094.16
2017-08-28T16:41:57.783Z,97092.88
2017-08-28T16:44:25.480Z,97094.59
2017-08-28T16:46:53.332Z,97099.19
2017-08-28T16:49:20.959Z,97094.77
2017-08-28T16:51:48.577Z,97102.34
2017-08-28T16:54:16.161Z,97103.02
2017-08-28T16:56:43.781Z,97104.75
2017-08-28T16:59:11.402Z,97105.36
2017-08-28T17:01:39.023Z,97102.23
2017-08-28T17:04:06.953Z,97102.89
2017-08-28T17:06:34.666Z,97108.28
2017-08-28T17:09:02.269Z,97102.88
2017-08-28T17:11:29.879Z,97096.87
2017-08-28T17:13:57.625Z,97102.23
2017-08-28T17:16:25.320Z,97106.31
2017-08-28T17:18:52.973Z,97101.80
2017-08-28T17:21:20.903Z,97099.06
2017-08-28T17:23:54.325Z,97105.25
2017-08-28T17:26:22.269Z,97093.86
2017-08-28T17:28:49.890Z,97096.72
2017-08-28T17:31:17.508Z,97100.84
2017-08-28T17:33:45.324Z,97101.53
2017-08-28T17:36:12.913Z,97106.52
2017-08-28T17:38:40.602Z,97109.49
2017-08-28T17:41:08.260Z,97116.23
2017-08-28T17:43:35.906Z,97112.18
2017-08-28T17:46:03.492Z,97115.59
2017-08-28T17:48:31.159Z,97116.47
2017-08-28T17:50:58.781Z,97116.43
2017-08-28T17:53:26.393Z,97116.37
2017-08-28T17:55:54.074Z,97118.11
2017-08-28T17:58:21.698Z,97124.48
2017-08-28T18:00:50.228Z,97126.11
2017-08-28T18:03:17.963Z,97132.00
2017-08-28T18:05:45.655Z,97130.07
2017-08-28T18:08:13.280Z,97133.49
2017-08-28T18:10:41.237Z,97135.97
2017-08-28T18:13:08.852Z,97135.86
2017-08-28T18:15:36.508Z,97135.27
2017-08-28T18:18:04.130Z,97136.79
2017-08-28T18:20:31.770Z,97136.19
2017-08-28T18:22:59.416Z,97141.22
2017-08-28T18:25:27.168Z,97145.89
2017-08-28T18:27:55.216Z,97149.17
2017-08-28T18:30:22.842Z,97151.17
2017-08-28T18:32:50.660Z,97150.56
2017-08-28T18:35:18.321Z,97157.22
2017-08-28T18:37:46.041Z,97153.53
2017-08-28T18:40:13.675Z,97158.09
2017-08-28T18:42:41.339Z,97159.59
2017-08-28T18:45:08.984Z,97158.41
2017-08-28T18:47:36.606Z,97162.97
2017-08-28T18:50:04.607Z,97161.75
2017-08-28T18:52:32.242Z,97163.55
2017-08-28T18:54:59.878Z,97161.57
2017-08-28T18:57:27.508Z,97164.28
2017-08-28T18:59:55.518Z,97162.75
2017-08-28T19:02:23.113Z,97160.42
2017-08-28T19:04:50.780Z,97172.23
2017-08-28T19:07:18.546Z,97166.44
2017-08-28T19:09:46.285Z,97173.08
2017-08-28T19:12:13.927Z,97166.84
2017-08-28T19:14:41.543Z,97168.30
2017-08-28T19:17:09.178Z,97178.71
2017-08-28T19:19:37.071Z,97169.83
2017-08-28T19:22:04.837Z,97177.20
2017-08-28T19:24:32.432Z,97178.60
2017-08-28T19:27:00.061Z,97177.86
2017-08-28T19:29:27.657Z,97179.70
2017-08-28T19:31:56.208Z,97180.30
2017-08-28T19:34:38.589Z,97187.78
2017-08-28T19:37:06.754Z,97182.74
2017-08-28T19:39:34.354Z,97185.94
2017-08-28T19:42:02.106Z,97188.73
2017-08-28T19:44:29.836Z,97189.37
2017-08-28T19:46:57.473Z,97192.11
2017-08-28T19:49:25.103Z,97186.61
2017-08-28T19:51:52.704Z,97192.84
2017-08-28T19:54:20.654Z,97194.69
2017-08-28T19:56:48.639Z,97190.47
2017-08-28T19:59:16.403Z,97196.17
2017-08-28T20:01:44.044Z,97202.25
2017-08-28T20:04:11.652Z,97203.25
2017-08-28T20:06:39.318Z,97209.85
2017-08-28T20:09:06.920Z,97209.95
2017-08-28T20:11:34.531Z,97212.63
2017-08-28T20:14:02.174Z,97213.11
2017-08-28T20:16:29.802Z,97219.56
2017-08-28T20:18:57.511Z,97220.52
2017-08-28T20:21:25.458Z,97220.63
2017-08-28T20:23:53.107Z,97219.44
2017-08-28T20:26:20.821Z,97221.63
2017-08-28T20:28:48.457Z,97218.82
2017-08-28T20:31:16.082Z,97224.54
2017-08-28T20:33:43.709Z,97231.98
2017-08-28T20:36:11.308Z,97234.27
2017-08-28T20:38:38.926Z,97238.66
2017-08-28T20:41:06.669Z,97228.35
2017-08-28T20:43:34.593Z,97233.08
2017-08-28T20:46:02.195Z,97238.75
2017-08-28T20:48:30.144Z,97235.02
2017-08-28T20:50:57.883Z,97233.35
2017-08-28T20:53:25.611Z,97232.96
2017-08-28T20:55:53.251Z,97236.88
2017-08-28T20:58:20.872Z,97234.89
2017-08-28T21:00:48.538Z,97237.09
2017-08-28T21:03:16.162Z,97235.38
2017-08-28T21:05:44.105Z,97227.73
2017-08-28T21:08:11.727Z,97224.80
2017-08-28T21:10:39.365Z,97225.28
2017-08-28T21:13:07.006Z,97230.09
2017-08-28T21:15:34.604Z,97228.41
2017-08-28T21:18:02.244Z,97227.13
2017-08-28T21:20:29.855Z,97228.38
2017-08-28T21:22:57.827Z,97227.05
2017-08-28T21:25:25.521Z,97229.20
2017-08-28T21:27:53.180Z,97226.66
2017-08-28T21:30:20.792Z,97227.17
2017-08-28T21:32:48.834Z,97226.40
2017-08-28T21:35:16.857Z,97225.63
2017-08-28T21:37:44.503Z,97225.25
2017-08-28T21:40:12.148Z,97224.08
2017-08-28T21:42:39.760Z,97225.89
2017-08-28T21:45:07.381Z,97230.27
2017-08-28T21:47:34.986Z,97230.73
2017-08-28T21:50:02.962Z,97229.48
2017-08-28T21:52:30.589Z,97224.38
2017-08-28T21:54:58.355Z,97231.71
2017-08-28T21:57:25.995Z,97225.31
2017-08-28T21:59:53.604Z,97224.97
2017-08-28T22:02:21.288Z,97225.13
2017-08-28T22:04:48.875Z,97228.59
2017-08-28T22:07:16.497Z,97223.95
2017-08-28T22:09:44.113Z,97224.92
2017-08-28T22:12:11.824Z,97228.44
2017-08-28T22:14:39.433Z,97223.33
2017-08-28T22:17:07.045Z,97218.61
2017-08-28T22:19:34.633Z,97221.58
2017-08-28T22:22:02.369Z,97219.91
2017-08-28T22:24:30.163Z,97222.08
2017-08-28T22:26:57.757Z,97222.16
2017-08-28T22:29:25.385Z,97227.42
2017-08-28T22:31:52.981Z,97221.64
2017-08-28T22:34:20.684Z,97224.36
2017-08-28T22:36:48.398Z,97225.72
2017-08-28T22:39:16.490Z,97230.94
2017-08-28T22:41:44.115Z,97232.27
2017-08-28T22:44:11.713Z,97234.52
2017-08-28T22:46:39.338Z,97236.69
2017-08-28T22:49:06.946Z,97237.58
2017-08-28T22:51:34.574Z,97232.01
2017-08-28T22:54:02.197Z,97232.05
2017-08-28T22:56:29.830Z,97235.08
2017-08-28T22:58:57.451Z,97230.86
2017-08-28T23:01:26.056Z,97230.04
2017-08-28T23:03:53.668Z,97226.28
2017-08-28T23:06:21.277Z,97227.17
2017-08-28T23:08:48.893Z,97231.46
2017-08-28T23:11:16.823Z,97231.06
2017-08-28T23:13:44.444Z,97230.24
2017-08-28T23:16:12.166Z,97228.95
2017-08-28T23:18:39.928Z,97227.67
2017-08-28T23:21:07.692Z,97223.84
2017-08-28T23:23:35.331Z,97228.63
2017-08-28T23:26:02.949Z,97232.09
2017-08-28T23:28:30.567Z,97231.27
2017-08-28T23:30:58.150Z,97225.77
2017-08-28T23:33:25.769Z,97230.23
2017-08-28T23:35:53.402Z,97224.89
2017-08-28T23:38:20.984Z,97227.58
2017-08-28T23:40:48.621Z,97222.91
2017-08-28T23:43:16.254Z,97230.61
2017-08-28T23:45:43.839Z,97234.47
2017-08-28T23:48:11.441Z,97230.98
2017-08-28T23:50:39.048Z,97227.22
2017-08-28T23:53:06.648Z,97219.11
2017-08-28T23:55:34.318Z,97223.39
2017-08-28T23:58:01.923Z,97221.62
